CES6924 ZLDH-ZLXY
Flight info
| Callsign | CES6924 |
|---|---|
| Flight time | N/A |
| Altitude | 31100 |
| Route | VIKUP W191 DNC W565 BIGUX W214 HO |
| Aircraft | B38M/M-SDE1FGHILORVWXY/HB1 |
Departure
| Time | 2026-05-05 12:17 |
|---|---|
| Airport | Dunhuang Mogao International Airport (ZLDH) |
Arrival
| Time | N/A |
|---|---|
| Airport | Xi'an Xianyang International Airport (ZLXY) |
| Time | Latitude | Longitude | Altitude | Speed | Heading |
|---|---|---|---|---|---|
| 2026-05-05 12:17 | 40.16664 | 94.86531 | 5223 ft | 213 kts | 80° |
| 2026-05-05 12:17 | 40.16800 | 94.88540 | 5774 ft | 232 kts | 79° |
| 2026-05-05 12:17 | 40.16953 | 94.90692 | 6223 ft | 251 kts | 80° |
| 2026-05-05 12:17 | 40.17125 | 94.93046 | 6677 ft | 269 kts | 80° |
| 2026-05-05 12:18 | 40.17311 | 94.95549 | 7242 ft | 282 kts | 82° |
| 2026-05-05 12:18 | 40.17501 | 94.98106 | 8087 ft | 283 kts | 81° |
| 2026-05-05 12:18 | 40.17697 | 95.00700 | 8710 ft | 291 kts | 83° |
| 2026-05-05 12:18 | 40.17895 | 95.03346 | 8893 ft | 294 kts | 81° |
| 2026-05-05 12:19 | 40.18086 | 95.06009 | 9665 ft | 294 kts | 86° |
| 2026-05-05 12:19 | 40.17820 | 95.08699 | 10230 ft | 309 kts | 108° |
| 2026-05-05 12:19 | 40.16691 | 95.11122 | 10562 ft | 328 kts | 135° |
| 2026-05-05 12:19 | 40.14757 | 95.12779 | 10936 ft | 342 kts | 161° |
| 2026-05-05 12:20 | 40.12383 | 95.13270 | 11445 ft | 352 kts | 177° |
| 2026-05-05 12:20 | 40.09893 | 95.13534 | 11878 ft | 365 kts | 168° |
| 2026-05-05 12:20 | 40.07357 | 95.13862 | 12646 ft | 365 kts | 174° |
| 2026-05-05 12:20 | 40.04825 | 95.14187 | 13416 ft | 368 kts | 174° |
| 2026-05-05 12:21 | 40.02261 | 95.14520 | 14057 ft | 372 kts | 174° |
| 2026-05-05 12:21 | 39.99687 | 95.14856 | 14833 ft | 373 kts | 174° |
| 2026-05-05 12:21 | 39.97092 | 95.15197 | 15450 ft | 377 kts | 173° |
| 2026-05-05 12:21 | 39.94564 | 95.15978 | 16020 ft | 381 kts | 156° |
| 2026-05-05 12:22 | 39.92341 | 95.17804 | 16701 ft | 382 kts | 137° |
| 2026-05-05 12:22 | 39.90637 | 95.20481 | 17265 ft | 386 kts | 118° |
| 2026-05-05 12:22 | 39.89383 | 95.23586 | 17824 ft | 390 kts | 116° |
| 2026-05-05 12:22 | 39.88140 | 95.26764 | 18319 ft | 396 kts | 115° |
| 2026-05-05 12:23 | 39.86900 | 95.29982 | 18867 ft | 399 kts | 115° |
| 2026-05-05 12:23 | 39.85661 | 95.33232 | 19386 ft | 403 kts | 115° |
| 2026-05-05 12:23 | 39.84415 | 95.36518 | 19880 ft | 407 kts | 115° |
| 2026-05-05 12:23 | 39.83174 | 95.39789 | 20381 ft | 410 kts | 115° |
| 2026-05-05 12:24 | 39.81906 | 95.43130 | 20847 ft | 414 kts | 115° |
| 2026-05-05 12:24 | 39.80624 | 95.46503 | 21356 ft | 418 kts | 115° |
| 2026-05-05 12:24 | 39.79327 | 95.49915 | 21823 ft | 423 kts | 115° |
| 2026-05-05 12:24 | 39.78018 | 95.53353 | 22284 ft | 427 kts | 115° |
| 2026-05-05 12:25 | 39.76707 | 95.56835 | 22752 ft | 430 kts | 115° |
| 2026-05-05 12:25 | 39.75384 | 95.60345 | 23207 ft | 434 kts | 115° |
| 2026-05-05 12:25 | 39.74048 | 95.63887 | 23612 ft | 438 kts | 115° |
| 2026-05-05 12:25 | 39.72701 | 95.67450 | 23961 ft | 441 kts | 116° |
| 2026-05-05 12:26 | 39.71359 | 95.70996 | 24348 ft | 444 kts | 116° |
| 2026-05-05 12:26 | 39.69995 | 95.74594 | 24804 ft | 444 kts | 116° |
| 2026-05-05 12:26 | 39.68629 | 95.78200 | 25215 ft | 446 kts | 117° |
| 2026-05-05 12:26 | 39.67250 | 95.81831 | 25528 ft | 450 kts | 117° |
| 2026-05-05 12:27 | 39.65866 | 95.85473 | 25888 ft | 452 kts | 117° |
| 2026-05-05 12:27 | 39.64468 | 95.89148 | 26290 ft | 453 kts | 117° |
| 2026-05-05 12:27 | 39.63074 | 95.92807 | 26716 ft | 454 kts | 118° |
| 2026-05-05 12:27 | 39.61684 | 95.96449 | 26983 ft | 458 kts | 118° |
| 2026-05-05 12:28 | 39.60271 | 96.00149 | 27378 ft | 459 kts | 118° |
| 2026-05-05 12:28 | 39.58846 | 96.03876 | 27683 ft | 463 kts | 118° |
| 2026-05-05 12:28 | 39.57413 | 96.07617 | 27998 ft | 465 kts | 118° |
| 2026-05-05 12:28 | 39.55951 | 96.11379 | 28321 ft | 468 kts | 119° |
| 2026-05-05 12:29 | 39.54468 | 96.15135 | 28643 ft | 470 kts | 119° |
| 2026-05-05 12:29 | 39.52973 | 96.18926 | 28948 ft | 473 kts | 120° |
| 2026-05-05 12:29 | 39.51473 | 96.22730 | 29222 ft | 476 kts | 120° |
| 2026-05-05 12:29 | 39.49965 | 96.26551 | 29553 ft | 478 kts | 120° |
| 2026-05-05 12:30 | 39.48463 | 96.30350 | 29849 ft | 481 kts | 120° |
| 2026-05-05 12:30 | 39.46936 | 96.34211 | 30135 ft | 484 kts | 120° |
| 2026-05-05 12:30 | 39.45449 | 96.37964 | 30364 ft | 486 kts | 120° |
| 2026-05-05 12:30 | 39.43906 | 96.41851 | 30666 ft | 487 kts | 120° |
| 2026-05-05 12:31 | 39.42351 | 96.45764 | 30943 ft | 489 kts | 120° |
| 2026-05-05 12:31 | 39.40791 | 96.49690 | 31121 ft | 491 kts | 121° |
| 2026-05-05 12:31 | 39.37678 | 96.57499 | 31145 ft | 490 kts | 121° |
| 2026-05-05 12:32 | 39.34553 | 96.65325 | 31135 ft | 490 kts | 118° |
| 2026-05-05 12:32 | 39.31445 | 96.73090 | 31122 ft | 491 kts | 121° |
| 2026-05-05 12:33 | 39.28319 | 96.80868 | 31147 ft | 490 kts | 121° |
| 2026-05-05 12:33 | 39.25216 | 96.88702 | 31152 ft | 492 kts | 121° |
| 2026-05-05 12:34 | 39.22100 | 96.96583 | 31109 ft | 493 kts | 121° |
| 2026-05-05 12:34 | 39.18994 | 97.04413 | 31166 ft | 494 kts | 121° |
| 2026-05-05 12:35 | 39.15868 | 97.12274 | 31140 ft | 493 kts | 121° |
| 2026-05-05 12:35 | 39.12734 | 97.20137 | 31147 ft | 493 kts | 121° |
| 2026-05-05 12:36 | 39.09588 | 97.28004 | 31175 ft | 496 kts | 121° |
| 2026-05-05 12:36 | 39.06455 | 97.35827 | 31201 ft | 495 kts | 121° |
| 2026-05-05 12:37 | 39.03293 | 97.43695 | 31193 ft | 495 kts | 121° |
| 2026-05-05 12:37 | 39.00127 | 97.51556 | 31209 ft | 495 kts | 121° |
| 2026-05-05 12:38 | 38.96956 | 97.59408 | 31193 ft | 495 kts | 122° |
| 2026-05-05 12:38 | 38.93780 | 97.67251 | 31197 ft | 500 kts | 122° |
| 2026-05-05 12:39 | 38.90570 | 97.75149 | 31187 ft | 500 kts | 122° |
| 2026-05-05 12:39 | 38.87349 | 97.83057 | 31195 ft | 500 kts | 122° |
| 2026-05-05 12:40 | 38.84122 | 97.90959 | 31162 ft | 499 kts | 122° |
| 2026-05-05 12:40 | 38.80920 | 97.98780 | 31188 ft | 499 kts | 122° |
| 2026-05-05 12:41 | 38.77671 | 98.06697 | 31182 ft | 504 kts | 122° |
| 2026-05-05 12:41 | 38.76036 | 98.10675 | 31475 ft | 504 kts | 122° |
| 2026-05-05 12:41 | 38.74402 | 98.14642 | 31817 ft | 504 kts | 122° |
| 2026-05-05 12:42 | 38.72763 | 98.18618 | 32123 ft | 504 kts | 122° |
| 2026-05-05 12:42 | 38.71124 | 98.22586 | 32454 ft | 504 kts | 122° |
| 2026-05-05 12:42 | 38.69487 | 98.26548 | 32799 ft | 504 kts | 123° |
| 2026-05-05 12:42 | 38.67845 | 98.30515 | 33093 ft | 504 kts | 123° |
| 2026-05-05 12:43 | 38.66225 | 98.34424 | 33197 ft | 505 kts | 123° |
| 2026-05-05 12:43 | 38.64579 | 98.38394 | 33164 ft | 505 kts | 122° |
| 2026-05-05 12:43 | 38.61272 | 98.46347 | 33178 ft | 507 kts | 122° |
| 2026-05-05 12:44 | 38.57956 | 98.54303 | 33170 ft | 506 kts | 122° |
| 2026-05-05 12:44 | 38.54668 | 98.62171 | 33170 ft | 507 kts | 122° |
| 2026-05-05 12:45 | 38.51344 | 98.70108 | 33197 ft | 507 kts | 123° |
| 2026-05-05 12:45 | 38.48010 | 98.78046 | 33181 ft | 508 kts | 122° |
| 2026-05-05 12:46 | 38.44662 | 98.85998 | 33161 ft | 508 kts | 122° |
| 2026-05-05 12:46 | 38.41310 | 98.93940 | 33165 ft | 509 kts | 123° |
| 2026-05-05 12:47 | 38.37975 | 99.01821 | 33143 ft | 509 kts | 123° |
| 2026-05-05 12:47 | 38.34609 | 99.09754 | 33135 ft | 509 kts | 123° |
| 2026-05-05 12:48 | 38.31231 | 99.17696 | 33137 ft | 510 kts | 123° |
| 2026-05-05 12:48 | 38.27877 | 99.25565 | 33137 ft | 509 kts | 123° |
| 2026-05-05 12:49 | 38.24499 | 99.33469 | 33128 ft | 508 kts | 123° |
| 2026-05-05 12:49 | 38.21120 | 99.41356 | 33133 ft | 508 kts | 123° |
| 2026-05-05 12:50 | 38.17726 | 99.49258 | 33115 ft | 509 kts | 123° |
| 2026-05-05 12:50 | 38.14324 | 99.57156 | 33103 ft | 509 kts | 123° |
| 2026-05-05 12:51 | 38.10923 | 99.65036 | 33109 ft | 509 kts | 123° |
| 2026-05-05 12:51 | 38.07535 | 99.72863 | 33098 ft | 509 kts | 123° |
| 2026-05-05 12:52 | 38.04121 | 99.80733 | 33091 ft | 509 kts | 123° |
| 2026-05-05 12:52 | 38.00701 | 99.88596 | 33073 ft | 511 kts | 123° |
| 2026-05-05 12:53 | 37.97273 | 99.96459 | 33084 ft | 508 kts | 123° |
| 2026-05-05 12:53 | 37.93975 | 100.04006 | 33068 ft | 508 kts | 123° |
| 2026-05-05 12:54 | 37.88883 | 100.15624 | 33063 ft | 508 kts | 123° |
| 2026-05-05 12:55 | 37.85447 | 100.23439 | 33064 ft | 509 kts | 123° |
| 2026-05-05 12:55 | 37.82015 | 100.31225 | 33059 ft | 510 kts | 123° |
| 2026-05-05 12:56 | 37.78556 | 100.39054 | 33064 ft | 510 kts | 123° |
| 2026-05-05 12:56 | 37.75098 | 100.46868 | 33060 ft | 510 kts | 123° |
| 2026-05-05 12:57 | 37.71629 | 100.54687 | 33028 ft | 510 kts | 123° |
| 2026-05-05 12:57 | 37.68160 | 100.62489 | 33057 ft | 510 kts | 122° |
| 2026-05-05 12:58 | 37.64781 | 100.70294 | 33059 ft | 511 kts | 121° |
| 2026-05-05 12:58 | 37.61460 | 100.78217 | 33054 ft | 510 kts | 121° |
| 2026-05-05 12:59 | 37.58126 | 100.86119 | 33031 ft | 511 kts | 121° |
| 2026-05-05 12:59 | 37.54784 | 100.94016 | 33029 ft | 511 kts | 121° |
| 2026-05-05 13:00 | 37.49789 | 101.05780 | 33023 ft | 510 kts | 121° |
| 2026-05-05 13:01 | 37.43074 | 101.21533 | 33002 ft | 510 kts | 121° |
| 2026-05-05 13:01 | 37.39716 | 101.29381 | 33007 ft | 508 kts | 121° |
| 2026-05-05 13:02 | 37.36363 | 101.37197 | 33006 ft | 510 kts | 121° |
| 2026-05-05 13:02 | 37.33011 | 101.44993 | 32981 ft | 510 kts | 121° |
| 2026-05-05 13:03 | 37.29743 | 101.52901 | 32972 ft | 512 kts | 111° |
| 2026-05-05 13:03 | 37.27745 | 101.61498 | 32967 ft | 514 kts | 108° |
| 2026-05-05 13:04 | 37.25756 | 101.70131 | 33008 ft | 515 kts | 107° |
| 2026-05-05 13:04 | 37.23782 | 101.78724 | 32987 ft | 515 kts | 107° |
| 2026-05-05 13:05 | 37.21795 | 101.87354 | 33001 ft | 516 kts | 107° |
| 2026-05-05 13:05 | 37.19795 | 101.96003 | 32980 ft | 516 kts | 107° |
| 2026-05-05 13:06 | 37.17792 | 102.04641 | 33001 ft | 516 kts | 107° |
| 2026-05-05 13:06 | 37.15798 | 102.13200 | 33001 ft | 515 kts | 107° |
| 2026-05-05 13:07 | 37.13783 | 102.21826 | 32999 ft | 515 kts | 107° |
| 2026-05-05 13:07 | 37.11728 | 102.30395 | 33013 ft | 514 kts | 113° |
| 2026-05-05 13:08 | 37.10071 | 102.34340 | 33045 ft | 509 kts | 126° |
| 2026-05-05 13:08 | 37.08204 | 102.38056 | 33011 ft | 513 kts | 124° |
| 2026-05-05 13:08 | 37.04487 | 102.45636 | 33019 ft | 511 kts | 124° |
| 2026-05-05 13:09 | 37.00721 | 102.53185 | 33028 ft | 510 kts | 125° |
| 2026-05-05 13:09 | 36.96957 | 102.60707 | 33032 ft | 511 kts | 125° |
| 2026-05-05 13:10 | 36.93198 | 102.68199 | 33007 ft | 510 kts | 125° |
| 2026-05-05 13:10 | 36.89426 | 102.75704 | 33010 ft | 511 kts | 125° |
| 2026-05-05 13:11 | 36.85641 | 102.83215 | 33009 ft | 513 kts | 124° |
| 2026-05-05 13:11 | 36.81850 | 102.90778 | 33002 ft | 514 kts | 121° |
| 2026-05-05 13:12 | 36.78705 | 102.98735 | 32975 ft | 516 kts | 117° |
| 2026-05-05 13:12 | 36.75587 | 103.06784 | 32961 ft | 515 kts | 117° |
| 2026-05-05 13:13 | 36.72461 | 103.14841 | 32958 ft | 517 kts | 117° |
| 2026-05-05 13:13 | 36.69322 | 103.22912 | 32947 ft | 518 kts | 117° |
| 2026-05-05 13:14 | 36.66197 | 103.30928 | 32922 ft | 518 kts | 117° |
| 2026-05-05 13:14 | 36.63046 | 103.38988 | 32921 ft | 518 kts | 117° |
| 2026-05-05 13:15 | 36.59892 | 103.47038 | 32922 ft | 518 kts | 118° |
| 2026-05-05 13:15 | 36.56730 | 103.55086 | 32909 ft | 516 kts | 117° |
| 2026-05-05 13:16 | 36.53510 | 103.62979 | 32952 ft | 515 kts | 121° |
| 2026-05-05 13:16 | 36.49939 | 103.70697 | 32948 ft | 515 kts | 122° |
| 2026-05-05 13:17 | 36.46341 | 103.78391 | 32937 ft | 515 kts | 122° |
| 2026-05-05 13:17 | 36.42739 | 103.86070 | 32934 ft | 515 kts | 122° |
| 2026-05-05 13:18 | 36.39115 | 103.93780 | 32903 ft | 518 kts | 122° |
| 2026-05-05 13:18 | 36.35501 | 104.01449 | 32871 ft | 518 kts | 122° |
| 2026-05-05 13:19 | 36.31859 | 104.09164 | 32874 ft | 518 kts | 122° |
| 2026-05-05 13:19 | 36.28221 | 104.16856 | 32863 ft | 518 kts | 122° |
| 2026-05-05 13:20 | 36.24569 | 104.24560 | 32884 ft | 518 kts | 122° |
| 2026-05-05 13:20 | 36.20947 | 104.32183 | 32891 ft | 518 kts | 122° |
| 2026-05-05 13:21 | 36.17281 | 104.39876 | 32893 ft | 518 kts | 122° |
| 2026-05-05 13:21 | 36.13616 | 104.47551 | 32898 ft | 518 kts | 122° |
| 2026-05-05 13:22 | 36.09948 | 104.55216 | 32890 ft | 518 kts | 123° |
| 2026-05-05 13:22 | 36.06284 | 104.62856 | 32889 ft | 521 kts | 122° |
| 2026-05-05 13:23 | 36.02581 | 104.70556 | 32889 ft | 521 kts | 122° |
| 2026-05-05 13:23 | 35.98872 | 104.78254 | 32888 ft | 521 kts | 123° |
| 2026-05-05 13:24 | 35.95162 | 104.85936 | 32887 ft | 521 kts | 123° |
| 2026-05-05 13:24 | 35.91474 | 104.93558 | 32882 ft | 521 kts | 123° |
| 2026-05-05 13:25 | 35.87779 | 105.01225 | 32881 ft | 522 kts | 122° |
| 2026-05-05 13:25 | 35.84069 | 105.08920 | 32879 ft | 522 kts | 122° |
| 2026-05-05 13:26 | 35.80351 | 105.16611 | 32879 ft | 522 kts | 122° |
| 2026-05-05 13:26 | 35.77258 | 105.22996 | 32876 ft | 522 kts | 123° |
| 2026-05-05 13:27 | 35.72932 | 105.31909 | 32879 ft | 522 kts | 122° |
| 2026-05-05 13:27 | 35.69196 | 105.39587 | 32877 ft | 523 kts | 122° |
| 2026-05-05 13:28 | 35.66089 | 105.45958 | 32886 ft | 523 kts | 123° |
| 2026-05-05 13:28 | 35.62373 | 105.53563 | 32879 ft | 523 kts | 123° |
| 2026-05-05 13:29 | 35.58625 | 105.61215 | 32875 ft | 522 kts | 123° |
| 2026-05-05 13:29 | 35.54879 | 105.68854 | 32876 ft | 522 kts | 122° |
| 2026-05-05 13:30 | 35.53345 | 105.72833 | 32838 ft | 523 kts | 107° |
| 2026-05-05 13:30 | 35.52550 | 105.77175 | 32895 ft | 523 kts | 100° |
| 2026-05-05 13:30 | 35.51157 | 105.85925 | 32871 ft | 524 kts | 100° |
| 2026-05-05 13:31 | 35.49823 | 105.94729 | 32873 ft | 524 kts | 99° |
| 2026-05-05 13:31 | 35.48498 | 106.03524 | 32875 ft | 525 kts | 100° |
| 2026-05-05 13:32 | 35.47172 | 106.12275 | 32871 ft | 525 kts | 99° |
| 2026-05-05 13:32 | 35.45832 | 106.21082 | 32860 ft | 526 kts | 100° |
| 2026-05-05 13:33 | 35.44488 | 106.29864 | 32861 ft | 526 kts | 100° |
| 2026-05-05 13:33 | 35.43133 | 106.38676 | 32857 ft | 526 kts | 100° |
| 2026-05-05 13:34 | 35.41773 | 106.47476 | 32853 ft | 526 kts | 100° |
| 2026-05-05 13:34 | 35.40414 | 106.56220 | 32833 ft | 525 kts | 100° |
| 2026-05-05 13:35 | 35.39042 | 106.65014 | 32813 ft | 525 kts | 100° |
| 2026-05-05 13:35 | 35.37662 | 106.73807 | 32816 ft | 525 kts | 100° |
| 2026-05-05 13:36 | 35.36287 | 106.82529 | 32812 ft | 524 kts | 101° |
| 2026-05-05 13:36 | 35.34907 | 106.91247 | 32818 ft | 524 kts | 100° |
| 2026-05-05 13:37 | 35.33516 | 107.00020 | 32815 ft | 524 kts | 101° |
| 2026-05-05 13:37 | 35.32121 | 107.08790 | 32812 ft | 525 kts | 100° |
| 2026-05-05 13:38 | 35.30720 | 107.17560 | 32814 ft | 524 kts | 101° |
| 2026-05-05 13:38 | 35.29324 | 107.26263 | 32824 ft | 525 kts | 101° |
| 2026-05-05 13:39 | 35.27911 | 107.35013 | 32817 ft | 524 kts | 101° |
| 2026-05-05 13:39 | 35.26490 | 107.43786 | 32450 ft | 524 kts | 101° |
| 2026-05-05 13:40 | 35.25781 | 107.48141 | 31755 ft | 521 kts | 101° |
| 2026-05-05 13:40 | 35.25070 | 107.52481 | 31059 ft | 520 kts | 101° |
| 2026-05-05 13:40 | 35.24360 | 107.56739 | 30390 ft | 518 kts | 102° |
| 2026-05-05 13:40 | 35.23639 | 107.61063 | 29734 ft | 517 kts | 102° |
| 2026-05-05 13:41 | 35.22922 | 107.65371 | 28928 ft | 516 kts | 102° |
| 2026-05-05 13:41 | 35.22205 | 107.69655 | 28155 ft | 514 kts | 102° |
| 2026-05-05 13:41 | 35.21417 | 107.73905 | 27406 ft | 511 kts | 109° |
| 2026-05-05 13:41 | 35.19949 | 107.77834 | 26658 ft | 505 kts | 125° |
| 2026-05-05 13:42 | 35.17757 | 107.81134 | 25988 ft | 497 kts | 135° |
| 2026-05-05 13:42 | 35.15432 | 107.84248 | 25307 ft | 494 kts | 134° |
| 2026-05-05 13:42 | 35.13127 | 107.87348 | 24653 ft | 491 kts | 135° |
| 2026-05-05 13:42 | 35.10830 | 107.90418 | 24002 ft | 488 kts | 135° |
| 2026-05-05 13:43 | 35.08575 | 107.93423 | 23367 ft | 484 kts | 134° |
| 2026-05-05 13:43 | 35.06331 | 107.96411 | 22597 ft | 470 kts | 134° |
| 2026-05-05 13:43 | 35.04155 | 107.99305 | 21885 ft | 456 kts | 134° |
| 2026-05-05 13:43 | 35.02042 | 108.02113 | 21163 ft | 444 kts | 134° |
| 2026-05-05 13:44 | 34.99985 | 108.04846 | 20554 ft | 431 kts | 134° |
| 2026-05-05 13:44 | 34.97992 | 108.07490 | 20025 ft | 417 kts | 134° |
| 2026-05-05 13:44 | 34.96058 | 108.10055 | 19519 ft | 405 kts | 134° |
| 2026-05-05 13:44 | 34.94170 | 108.12555 | 19024 ft | 394 kts | 134° |
| 2026-05-05 13:45 | 34.92339 | 108.14980 | 18540 ft | 384 kts | 134° |
| 2026-05-05 13:45 | 34.90573 | 108.17316 | 18073 ft | 375 kts | 134° |
| 2026-05-05 13:45 | 34.88820 | 108.19628 | 17528 ft | 368 kts | 134° |
| 2026-05-05 13:45 | 34.87094 | 108.21883 | 16994 ft | 361 kts | 134° |
| 2026-05-05 13:46 | 34.85395 | 108.24101 | 16440 ft | 357 kts | 135° |
| 2026-05-05 13:46 | 34.83707 | 108.26306 | 15924 ft | 353 kts | 135° |
| 2026-05-05 13:46 | 34.82046 | 108.28476 | 15407 ft | 347 kts | 135° |
| 2026-05-05 13:46 | 34.80415 | 108.30604 | 14909 ft | 342 kts | 135° |
| 2026-05-05 13:47 | 34.78807 | 108.32701 | 14420 ft | 337 kts | 135° |
| 2026-05-05 13:47 | 34.77213 | 108.34778 | 13934 ft | 334 kts | 135° |
| 2026-05-05 13:47 | 34.75662 | 108.36799 | 13459 ft | 331 kts | 135° |